sensor_id;sensor_type;location;lat;lon;timestamp;temperature;humidity
7248;DHT22;3665;51.034;13.642;2023-06-19T00:02:46;16.90;1.00
7248;DHT22;3665;51.034;13.642;2023-06-19T00:07:40;16.90;1.00
7248;DHT22;3665;51.034;13.642;2023-06-19T00:12:30;16.80;1.00
7248;DHT22;3665;51.034;13.642;2023-06-19T00:17:17;16.80;1.00
7248;DHT22;3665;51.034;13.642;2023-06-19T00:22:01;16.70;1.00
7248;DHT22;3665;51.034;13.642;2023-06-19T00:26:53;16.70;1.00
7248;DHT22;3665;51.034;13.642;2023-06-19T00:31:42;16.70;1.00
7248;DHT22;3665;51.034;13.642;2023-06-19T00:36:29;16.60;1.00
7248;DHT22;3665;51.034;13.642;2023-06-19T00:41:18;16.50;1.00
7248;DHT22;3665;51.034;13.642;2023-06-19T00:46:05;16.40;1.00
7248;DHT22;3665;51.034;13.642;2023-06-19T00:50:49;16.40;1.00
7248;DHT22;3665;51.034;13.642;2023-06-19T00:55:44;16.50;1.00
7248;DHT22;3665;51.034;13.642;2023-06-19T01:00:28;16.30;1.00
7248;DHT22;3665;51.034;13.642;2023-06-19T01:05:18;16.10;1.00
7248;DHT22;3665;51.034;13.642;2023-06-19T01:10:08;15.80;1.00
7248;DHT22;3665;51.034;13.642;2023-06-19T01:14:58;15.80;1.00
7248;DHT22;3665;51.034;13.642;2023-06-19T01:19:42;15.80;1.00
7248;DHT22;3665;51.034;13.642;2023-06-19T01:24:29;15.70;1.00
7248;DHT22;3665;51.034;13.642;2023-06-19T01:29:18;15.50;1.00
7248;DHT22;3665;51.034;13.642;2023-06-19T01:34:06;15.40;1.00
7248;DHT22;3665;51.034;13.642;2023-06-19T01:38:51;15.30;1.00
7248;DHT22;3665;51.034;13.642;2023-06-19T01:43:41;15.30;1.00
7248;DHT22;3665;51.034;13.642;2023-06-19T01:48:27;15.40;1.00
7248;DHT22;3665;51.034;13.642;2023-06-19T01:53:11;15.40;1.00
7248;DHT22;3665;51.034;13.642;2023-06-19T01:58:07;15.30;1.00
7248;DHT22;3665;51.034;13.642;2023-06-19T02:02:54;15.20;1.00
7248;DHT22;3665;51.034;13.642;2023-06-19T02:07:40;15.20;1.00
7248;DHT22;3665;51.034;13.642;2023-06-19T02:12:29;15.00;1.00
7248;DHT22;3665;51.034;13.642;2023-06-19T02:17:22;14.90;1.00
7248;DHT22;3665;51.034;13.642;2023-06-19T02:22:07;14.70;1.00
7248;DHT22;3665;51.034;13.642;2023-06-19T02:26:53;14.60;1.00
7248;DHT22;3665;51.034;13.642;2023-06-19T02:31:41;14.50;1.00
7248;DHT22;3665;51.034;13.642;2023-06-19T02:36:31;14.40;1.00
7248;DHT22;3665;51.034;13.642;2023-06-19T02:41:18;14.30;1.00
7248;DHT22;3665;51.034;13.642;2023-06-19T02:46:05;14.40;1.00
7248;DHT22;3665;51.034;13.642;2023-06-19T02:50:51;14.50;1.00
7248;DHT22;3665;51.034;13.642;2023-06-19T02:55:41;14.60;1.00
7248;DHT22;3665;51.034;13.642;2023-06-19T03:00:38;14.80;1.00
7248;DHT22;3665;51.034;13.642;2023-06-19T03:05:34;15.00;1.00
7248;DHT22;3665;51.034;13.642;2023-06-19T03:10:24;15.30;1.00
7248;DHT22;3665;51.034;13.642;2023-06-19T03:15:10;15.40;1.00
7248;DHT22;3665;51.034;13.642;2023-06-19T03:19:59;15.60;1.00
7248;DHT22;3665;51.034;13.642;2023-06-19T03:24:47;15.70;1.00
7248;DHT22;3665;51.034;13.642;2023-06-19T03:29:35;15.90;1.00
7248;DHT22;3665;51.034;13.642;2023-06-19T03:34:21;16.00;1.00
7248;DHT22;3665;51.034;13.642;2023-06-19T03:39:10;16.10;1.00
7248;DHT22;3665;51.034;13.642;2023-06-19T03:43:57;16.20;1.00
7248;DHT22;3665;51.034;13.642;2023-06-19T03:48:43;16.30;1.00
7248;DHT22;3665;51.034;13.642;2023-06-19T03:53:26;16.30;1.00
7248;DHT22;3665;51.034;13.642;2023-06-19T03:58:26;16.30;1.00
7248;DHT22;3665;51.034;13.642;2023-06-19T04:03:10;16.30;1.00
7248;DHT22;3665;51.034;13.642;2023-06-19T04:07:55;16.40;1.00
7248;DHT22;3665;51.034;13.642;2023-06-19T04:12:48;16.70;1.00
7248;DHT22;3665;51.034;13.642;2023-06-19T04:17:50;17.00;1.00
7248;DHT22;3665;51.034;13.642;2023-06-19T04:22:36;17.40;1.00
7248;DHT22;3665;51.034;13.642;2023-06-19T04:27:28;18.00;1.00
7248;DHT22;3665;51.034;13.642;2023-06-19T04:32:13;18.70;1.00
7248;DHT22;3665;51.034;13.642;2023-06-19T04:37:02;18.90;1.00
7248;DHT22;3665;51.034;13.642;2023-06-19T04:41:49;19.00;1.00
7248;DHT22;3665;51.034;13.642;2023-06-19T04:46:37;18.90;1.00
7248;DHT22;3665;51.034;13.642;2023-06-19T04:51:24;19.00;1.00
7248;DHT22;3665;51.034;13.642;2023-06-19T04:56:17;19.20;1.00
7248;DHT22;3665;51.034;13.642;2023-06-19T05:01:01;19.20;1.00
7248;DHT22;3665;51.034;13.642;2023-06-19T05:05:46;19.30;1.00
7248;DHT22;3665;51.034;13.642;2023-06-19T05:10:38;19.40;1.00
7248;DHT22;3665;51.034;13.642;2023-06-19T05:15:25;19.40;1.00
7248;DHT22;3665;51.034;13.642;2023-06-19T05:20:17;19.50;1.00
7248;DHT22;3665;51.034;13.642;2023-06-19T05:25:01;19.70;1.00
7248;DHT22;3665;51.034;13.642;2023-06-19T05:29:51;19.90;1.00
7248;DHT22;3665;51.034;13.642;2023-06-19T05:34:38;20.10;1.00
7248;DHT22;3665;51.034;13.642;2023-06-19T05:39:28;20.20;1.00
7248;DHT22;3665;51.034;13.642;2023-06-19T05:44:13;20.40;1.00
7248;DHT22;3665;51.034;13.642;2023-06-19T05:49:02;20.30;1.00
7248;DHT22;3665;51.034;13.642;2023-06-19T05:53:50;20.30;1.00
7248;DHT22;3665;51.034;13.642;2023-06-19T05:58:34;20.30;1.00
7248;DHT22;3665;51.034;13.642;2023-06-19T06:03:27;20.20;1.00
7248;DHT22;3665;51.034;13.642;2023-06-19T06:08:15;20.30;1.00
7248;DHT22;3665;51.034;13.642;2023-06-19T06:13:02;20.40;1.00
7248;DHT22;3665;51.034;13.642;2023-06-19T06:17:46;20.40;1.00
7248;DHT22;3665;51.034;13.642;2023-06-19T06:22:38;20.70;1.00
7248;DHT22;3665;51.034;13.642;2023-06-19T06:27:28;20.90;1.00
7248;DHT22;3665;51.034;13.642;2023-06-19T06:32:13;21.10;1.00
7248;DHT22;3665;51.034;13.642;2023-06-19T06:37:02;21.30;1.00
7248;DHT22;3665;51.034;13.642;2023-06-19T06:41:49;21.40;1.00
7248;DHT22;3665;51.034;13.642;2023-06-19T06:46:39;21.20;1.00
7248;DHT22;3665;51.034;13.642;2023-06-19T06:51:26;21.30;1.00
7248;DHT22;3665;51.034;13.642;2023-06-19T06:56:13;21.30;1.00
7248;DHT22;3665;51.034;13.642;2023-06-19T07:01:01;21.80;1.00
7248;DHT22;3665;51.034;13.642;2023-06-19T07:05:51;22.10;1.00
7248;DHT22;3665;51.034;13.642;2023-06-19T07:10:39;22.50;1.00
7248;DHT22;3665;51.034;13.642;2023-06-19T07:15:25;22.80;1.00
7248;DHT22;3665;51.034;13.642;2023-06-19T07:20:16;23.00;1.00
7248;DHT22;3665;51.034;13.642;2023-06-19T07:25:00;23.40;1.00
7248;DHT22;3665;51.034;13.642;2023-06-19T07:29:49;23.80;1.00
7248;DHT22;3665;51.034;13.642;2023-06-19T07:34:38;24.00;1.00
7248;DHT22;3665;51.034;13.642;2023-06-19T07:39:22;24.70;1.00
7248;DHT22;3665;51.034;13.642;2023-06-19T07:44:13;25.30;1.00
7248;DHT22;3665;51.034;13.642;2023-06-19T07:49:01;25.80;1.00
7248;DHT22;3665;51.034;13.642;2023-06-19T07:53:52;25.80;1.00
7248;DHT22;3665;51.034;13.642;2023-06-19T07:58:39;25.50;1.00
7248;DHT22;3665;51.034;13.642;2023-06-19T08:03:23;25.50;1.00
7248;DHT22;3665;51.034;13.642;2023-06-19T08:08:16;25.20;1.00
7248;DHT22;3665;51.034;13.642;2023-06-19T08:13:03;25.20;1.00
7248;DHT22;3665;51.034;13.642;2023-06-19T08:17:48;24.60;1.00
7248;DHT22;3665;51.034;13.642;2023-06-19T08:22:38;24.30;1.00
7248;DHT22;3665;51.034;13.642;2023-06-19T08:27:25;24.20;1.00
7248;DHT22;3665;51.034;13.642;2023-06-19T08:32:14;23.80;1.00
7248;DHT22;3665;51.034;13.642;2023-06-19T08:37:00;23.50;1.00
7248;DHT22;3665;51.034;13.642;2023-06-19T08:41:50;23.30;1.00
7248;DHT22;3665;51.034;13.642;2023-06-19T08:46:39;23.10;1.00
7248;DHT22;3665;51.034;13.642;2023-06-19T08:51:26;23.10;1.00
7248;DHT22;3665;51.034;13.642;2023-06-19T08:56:13;23.40;1.00
7248;DHT22;3665;51.034;13.642;2023-06-19T09:01:01;23.40;1.00
7248;DHT22;3665;51.034;13.642;2023-06-19T09:05:49;23.60;1.00
7248;DHT22;3665;51.034;13.642;2023-06-19T09:10:36;23.90;1.00
7248;DHT22;3665;51.034;13.642;2023-06-19T09:15:20;23.90;1.00
7248;DHT22;3665;51.034;13.642;2023-06-19T09:20:07;23.70;1.00
7248;DHT22;3665;51.034;13.642;2023-06-19T09:30:36;23.10;1.00
7248;DHT22;3665;51.034;13.642;2023-06-19T09:35:20;22.90;1.00
7248;DHT22;3665;51.034;13.642;2023-06-19T09:40:13;22.70;1.00
7248;DHT22;3665;51.034;13.642;2023-06-19T09:45:05;22.70;1.00
7248;DHT22;3665;51.034;13.642;2023-06-19T09:49:54;22.70;1.00
7248;DHT22;3665;51.034;13.642;2023-06-19T09:54:46;22.70;1.00
7248;DHT22;3665;51.034;13.642;2023-06-19T09:59:46;22.90;1.00
7248;DHT22;3665;51.034;13.642;2023-06-19T10:04:46;23.00;1.00
7248;DHT22;3665;51.034;13.642;2023-06-19T10:09:34;23.30;1.00
7248;DHT22;3665;51.034;13.642;2023-06-19T10:14:23;23.50;1.00
7248;DHT22;3665;51.034;13.642;2023-06-19T10:19:11;24.00;1.00
7248;DHT22;3665;51.034;13.642;2023-06-19T10:24:01;24.50;1.00
7248;DHT22;3665;51.034;13.642;2023-06-19T10:28:47;24.80;1.00
7248;DHT22;3665;51.034;13.642;2023-06-19T10:33:34;25.30;1.00
7248;DHT22;3665;51.034;13.642;2023-06-19T10:38:21;26.10;1.00
7248;DHT22;3665;51.034;13.642;2023-06-19T10:43:08;27.00;1.00
7248;DHT22;3665;51.034;13.642;2023-06-19T10:47:53;27.40;1.00
7248;DHT22;3665;51.034;13.642;2023-06-19T10:52:52;27.40;1.00
7248;DHT22;3665;51.034;13.642;2023-06-19T10:57:51;27.90;1.00
7248;DHT22;3665;51.034;13.642;2023-06-19T11:02:37;29.20;1.00
7248;DHT22;3665;51.034;13.642;2023-06-19T11:07:25;29.50;1.00
7248;DHT22;3665;51.034;13.642;2023-06-19T11:12:18;29.60;1.00
7248;DHT22;3665;51.034;13.642;2023-06-19T11:17:02;29.70;1.00
7248;DHT22;3665;51.034;13.642;2023-06-19T11:21:52;29.90;1.00
7248;DHT22;3665;51.034;13.642;2023-06-19T11:26:42;30.10;1.00
7248;DHT22;3665;51.034;13.642;2023-06-19T11:31:34;30.00;1.00
7248;DHT22;3665;51.034;13.642;2023-06-19T11:36:30;29.80;1.00
7248;DHT22;3665;51.034;13.642;2023-06-19T11:41:25;30.60;1.00
7248;DHT22;3665;51.034;13.642;2023-06-19T11:46:28;31.20;1.00
7248;DHT22;3665;51.034;13.642;2023-06-19T11:51:25;30.80;1.00
7248;DHT22;3665;51.034;13.642;2023-06-19T11:56:15;30.60;1.00
7248;DHT22;3665;51.034;13.642;2023-06-19T12:01:00;30.80;1.00
7248;DHT22;3665;51.034;13.642;2023-06-19T12:05:50;30.70;1.00
7248;DHT22;3665;51.034;13.642;2023-06-19T12:10:40;30.90;1.00
7248;DHT22;3665;51.034;13.642;2023-06-19T12:15:41;31.00;1.00
7248;DHT22;3665;51.034;13.642;2023-06-19T12:20:28;30.70;1.00
7248;DHT22;3665;51.034;13.642;2023-06-19T12:25:21;30.60;1.00
7248;DHT22;3665;51.034;13.642;2023-06-19T12:30:07;30.50;1.00
7248;DHT22;3665;51.034;13.642;2023-06-19T12:34:53;30.70;1.00
7248;DHT22;3665;51.034;13.642;2023-06-19T12:39:42;30.90;1.00
7248;DHT22;3665;51.034;13.642;2023-06-19T12:44:30;30.90;1.00
7248;DHT22;3665;51.034;13.642;2023-06-19T12:49:20;30.90;1.00
7248;DHT22;3665;51.034;13.642;2023-06-19T12:54:05;30.60;1.00
7248;DHT22;3665;51.034;13.642;2023-06-19T12:58:49;30.50;1.00
7248;DHT22;3665;51.034;13.642;2023-06-19T13:03:42;30.40;1.00
7248;DHT22;3665;51.034;13.642;2023-06-19T13:08:29;30.20;1.00
7248;DHT22;3665;51.034;13.642;2023-06-19T13:13:16;30.00;1.00
7248;DHT22;3665;51.034;13.642;2023-06-19T13:18:06;30.00;1.00
7248;DHT22;3665;51.034;13.642;2023-06-19T13:22:55;30.20;1.00
7248;DHT22;3665;51.034;13.642;2023-06-19T13:27:41;30.30;1.00
7248;DHT22;3665;51.034;13.642;2023-06-19T13:32:29;30.60;1.00
7248;DHT22;3665;51.034;13.642;2023-06-19T13:37:13;31.20;1.00
7248;DHT22;3665;51.034;13.642;2023-06-19T13:42:05;31.90;1.00
7248;DHT22;3665;51.034;13.642;2023-06-19T13:46:55;33.00;1.00
7248;DHT22;3665;51.034;13.642;2023-06-19T13:51:40;33.80;1.00
7248;DHT22;3665;51.034;13.642;2023-06-19T13:56:29;33.80;1.00
7248;DHT22;3665;51.034;13.642;2023-06-19T14:01:22;33.60;1.00
7248;DHT22;3665;51.034;13.642;2023-06-19T14:06:07;33.30;1.00
7248;DHT22;3665;51.034;13.642;2023-06-19T14:10:53;33.00;1.00
7248;DHT22;3665;51.034;13.642;2023-06-19T14:15:37;33.20;1.00
7248;DHT22;3665;51.034;13.642;2023-06-19T14:20:25;32.90;1.00
7248;DHT22;3665;51.034;13.642;2023-06-19T14:25:11;33.00;1.00
7248;DHT22;3665;51.034;13.642;2023-06-19T14:29:58;32.70;1.00
7248;DHT22;3665;51.034;13.642;2023-06-19T14:34:53;32.30;1.00
7248;DHT22;3665;51.034;13.642;2023-06-19T14:39:41;31.80;1.00
7248;DHT22;3665;51.034;13.642;2023-06-19T14:44:27;32.00;1.00
7248;DHT22;3665;51.034;13.642;2023-06-19T14:49:14;31.60;1.00
7248;DHT22;3665;51.034;13.642;2023-06-19T14:53:59;31.50;1.00
7248;DHT22;3665;51.034;13.642;2023-06-19T14:58:54;31.10;1.00
7248;DHT22;3665;51.034;13.642;2023-06-19T15:03:42;30.80;1.00
7248;DHT22;3665;51.034;13.642;2023-06-19T15:08:32;31.10;1.00
7248;DHT22;3665;51.034;13.642;2023-06-19T15:13:17;31.70;1.00
7248;DHT22;3665;51.034;13.642;2023-06-19T15:18:07;32.20;1.00
7248;DHT22;3665;51.034;13.642;2023-06-19T15:22:56;32.70;1.00
7248;DHT22;3665;51.034;13.642;2023-06-19T15:27:41;33.20;1.00
7248;DHT22;3665;51.034;13.642;2023-06-19T15:32:30;33.00;1.00
7248;DHT22;3665;51.034;13.642;2023-06-19T15:37:17;32.90;1.00
7248;DHT22;3665;51.034;13.642;2023-06-19T15:42:06;32.10;1.00
7248;DHT22;3665;51.034;13.642;2023-06-19T15:46:56;31.90;1.00
7248;DHT22;3665;51.034;13.642;2023-06-19T15:51:43;32.40;1.00
7248;DHT22;3665;51.034;13.642;2023-06-19T15:56:31;32.50;1.00
7248;DHT22;3665;51.034;13.642;2023-06-19T16:01:18;32.40;1.00
7248;DHT22;3665;51.034;13.642;2023-06-19T16:06:07;32.00;1.00
7248;DHT22;3665;51.034;13.642;2023-06-19T16:10:54;32.10;1.00
7248;DHT22;3665;51.034;13.642;2023-06-19T16:15:42;32.00;1.00
7248;DHT22;3665;51.034;13.642;2023-06-19T16:20:31;31.80;1.00
7248;DHT22;3665;51.034;13.642;2023-06-19T16:25:17;31.20;1.00
7248;DHT22;3665;51.034;13.642;2023-06-19T16:30:07;30.40;1.00
7248;DHT22;3665;51.034;13.642;2023-06-19T16:34:55;30.50;1.00
7248;DHT22;3665;51.034;13.642;2023-06-19T16:39:39;30.50;1.00
7248;DHT22;3665;51.034;13.642;2023-06-19T16:44:31;30.20;1.00
7248;DHT22;3665;51.034;13.642;2023-06-19T16:49:17;30.10;1.00
7248;DHT22;3665;51.034;13.642;2023-06-19T16:54:05;29.80;1.00
7248;DHT22;3665;51.034;13.642;2023-06-19T16:58:54;29.70;1.00
7248;DHT22;3665;51.034;13.642;2023-06-19T17:03:44;29.70;1.00
7248;DHT22;3665;51.034;13.642;2023-06-19T17:08:30;29.40;1.00
7248;DHT22;3665;51.034;13.642;2023-06-19T17:13:17;28.90;1.00
7248;DHT22;3665;51.034;13.642;2023-06-19T17:18:07;28.10;1.00
7248;DHT22;3665;51.034;13.642;2023-06-19T17:22:53;27.40;1.00
7248;DHT22;3665;51.034;13.642;2023-06-19T17:27:38;26.80;1.00
7248;DHT22;3665;51.034;13.642;2023-06-19T17:32:30;26.30;1.00
7248;DHT22;3665;51.034;13.642;2023-06-19T17:37:18;25.80;1.00
7248;DHT22;3665;51.034;13.642;2023-06-19T17:42:02;25.60;1.00
7248;DHT22;3665;51.034;13.642;2023-06-19T17:46:54;25.40;1.00
7248;DHT22;3665;51.034;13.642;2023-06-19T17:51:41;25.30;1.00
7248;DHT22;3665;51.034;13.642;2023-06-19T17:56:33;25.30;1.00
7248;DHT22;3665;51.034;13.642;2023-06-19T18:01:17;25.20;1.00
7248;DHT22;3665;51.034;13.642;2023-06-19T18:06:03;25.10;1.00
7248;DHT22;3665;51.034;13.642;2023-06-19T18:10:56;25.00;1.00
7248;DHT22;3665;51.034;13.642;2023-06-19T18:15:41;24.80;1.00
7248;DHT22;3665;51.034;13.642;2023-06-19T18:20:31;24.50;1.00
7248;DHT22;3665;51.034;13.642;2023-06-19T18:25:17;24.30;1.00
7248;DHT22;3665;51.034;13.642;2023-06-19T18:30:10;24.10;1.00
7248;DHT22;3665;51.034;13.642;2023-06-19T18:34:54;23.90;1.00
7248;DHT22;3665;51.034;13.642;2023-06-19T18:39:41;23.70;1.00
7248;DHT22;3665;51.034;13.642;2023-06-19T18:44:30;23.40;1.00
7248;DHT22;3665;51.034;13.642;2023-06-19T18:49:18;23.10;1.00
7248;DHT22;3665;51.034;13.642;2023-06-19T18:54:07;22.90;1.00
7248;DHT22;3665;51.034;13.642;2023-06-19T18:58:53;22.70;1.00
7248;DHT22;3665;51.034;13.642;2023-06-19T19:03:41;22.40;1.00
7248;DHT22;3665;51.034;13.642;2023-06-19T19:08:34;22.20;1.00
7248;DHT22;3665;51.034;13.642;2023-06-19T19:13:17;22.20;1.00
7248;DHT22;3665;51.034;13.642;2023-06-19T19:18:10;22.10;1.00
7248;DHT22;3665;51.034;13.642;2023-06-19T19:22:53;21.80;1.00
7248;DHT22;3665;51.034;13.642;2023-06-19T19:27:41;21.50;1.00
7248;DHT22;3665;51.034;13.642;2023-06-19T19:32:32;21.60;1.00
7248;DHT22;3665;51.034;13.642;2023-06-19T19:37:16;21.70;1.00
7248;DHT22;3665;51.034;13.642;2023-06-19T19:42:06;21.60;1.00
7248;DHT22;3665;51.034;13.642;2023-06-19T19:46:53;21.60;1.00
7248;DHT22;3665;51.034;13.642;2023-06-19T19:51:38;21.70;1.00
7248;DHT22;3665;51.034;13.642;2023-06-19T19:56:26;21.80;1.00
7248;DHT22;3665;51.034;13.642;2023-06-19T20:01:12;21.90;1.00
7248;DHT22;3665;51.034;13.642;2023-06-19T20:06:08;21.80;1.00
7248;DHT22;3665;51.034;13.642;2023-06-19T20:10:51;21.80;1.00
7248;DHT22;3665;51.034;13.642;2023-06-19T20:15:35;21.80;1.00
7248;DHT22;3665;51.034;13.642;2023-06-19T20:20:22;21.80;1.00
7248;DHT22;3665;51.034;13.642;2023-06-19T20:25:17;21.70;1.00
7248;DHT22;3665;51.034;13.642;2023-06-19T20:30:03;21.60;1.00
7248;DHT22;3665;51.034;13.642;2023-06-19T20:34:47;21.50;1.00
7248;DHT22;3665;51.034;13.642;2023-06-19T20:39:34;21.60;1.00
7248;DHT22;3665;51.034;13.642;2023-06-19T20:44:50;21.70;1.00
7248;DHT22;3665;51.034;13.642;2023-06-19T20:49:33;21.70;1.00
7248;DHT22;3665;51.034;13.642;2023-06-19T20:54:23;21.60;1.00
7248;DHT22;3665;51.034;13.642;2023-06-19T20:59:07;21.60;1.00
7248;DHT22;3665;51.034;13.642;2023-06-19T21:04:00;21.50;1.00
7248;DHT22;3665;51.034;13.642;2023-06-19T21:08:46;21.40;1.00
7248;DHT22;3665;51.034;13.642;2023-06-19T21:13:36;21.40;1.00
7248;DHT22;3665;51.034;13.642;2023-06-19T21:18:22;21.20;1.00
7248;DHT22;3665;51.034;13.642;2023-06-19T21:23:10;21.20;1.00
7248;DHT22;3665;51.034;13.642;2023-06-19T21:28:00;21.10;1.00
7248;DHT22;3665;51.034;13.642;2023-06-19T21:32:45;21.10;1.00
7248;DHT22;3665;51.034;13.642;2023-06-19T21:37:33;21.00;1.00
7248;DHT22;3665;51.034;13.642;2023-06-19T21:42:19;20.80;1.00
7248;DHT22;3665;51.034;13.642;2023-06-19T21:47:05;20.70;1.00
7248;DHT22;3665;51.034;13.642;2023-06-19T21:51:58;20.60;1.00
7248;DHT22;3665;51.034;13.642;2023-06-19T21:56:47;20.40;1.00
7248;DHT22;3665;51.034;13.642;2023-06-19T22:01:50;20.40;1.00
7248;DHT22;3665;51.034;13.642;2023-06-19T22:06:33;20.40;1.00
7248;DHT22;3665;51.034;13.642;2023-06-19T22:11:21;20.30;1.00
7248;DHT22;3665;51.034;13.642;2023-06-19T22:16:06;20.20;1.00
7248;DHT22;3665;51.034;13.642;2023-06-19T22:21:05;20.20;1.00
7248;DHT22;3665;51.034;13.642;2023-06-19T22:25:50;20.00;1.00
7248;DHT22;3665;51.034;13.642;2023-06-19T22:30:42;20.00;1.00
7248;DHT22;3665;51.034;13.642;2023-06-19T22:35:26;19.80;1.00
7248;DHT22;3665;51.034;13.642;2023-06-19T22:40:15;19.70;1.00
7248;DHT22;3665;51.034;13.642;2023-06-19T22:45:02;19.60;1.00
7248;DHT22;3665;51.034;13.642;2023-06-19T22:49:45;19.50;1.00
7248;DHT22;3665;51.034;13.642;2023-06-19T22:54:33;19.50;1.00
7248;DHT22;3665;51.034;13.642;2023-06-19T22:59:22;19.60;1.00
7248;DHT22;3665;51.034;13.642;2023-06-19T23:04:08;19.80;1.00
7248;DHT22;3665;51.034;13.642;2023-06-19T23:08:55;19.90;1.00
7248;DHT22;3665;51.034;13.642;2023-06-19T23:13:50;19.80;1.00
7248;DHT22;3665;51.034;13.642;2023-06-19T23:18:38;19.90;1.00
7248;DHT22;3665;51.034;13.642;2023-06-19T23:23:24;19.80;1.00
7248;DHT22;3665;51.034;13.642;2023-06-19T23:28:15;19.70;1.00
7248;DHT22;3665;51.034;13.642;2023-06-19T23:33:02;19.70;1.00
7248;DHT22;3665;51.034;13.642;2023-06-19T23:37:50;19.70;1.00
7248;DHT22;3665;51.034;13.642;2023-06-19T23:42:39;19.70;1.00
7248;DHT22;3665;51.034;13.642;2023-06-19T23:47:26;19.60;1.00
7248;DHT22;3665;51.034;13.642;2023-06-19T23:52:16;19.60;1.00
7248;DHT22;3665;51.034;13.642;2023-06-19T23:57:18;19.50;1.00
